sensor_id;sensor_type;location;lat;lon;timestamp;P1;durP1;ratioP1;P2;durP2;ratioP2
17714;SDS011;8977;50.902;4.314;2024-02-21T00:01:55;17.20;;;7.40;;
17714;SDS011;8977;50.902;4.314;2024-02-21T00:04:22;14.67;;;7.03;;
17714;SDS011;8977;50.902;4.314;2024-02-21T00:06:49;16.23;;;7.33;;
17714;SDS011;8977;50.902;4.314;2024-02-21T00:09:16;18.43;;;7.73;;
17714;SDS011;8977;50.902;4.314;2024-02-21T00:11:46;14.87;;;6.70;;
17714;SDS011;8977;50.902;4.314;2024-02-21T00:14:12;15.20;;;6.97;;
17714;SDS011;8977;50.902;4.314;2024-02-21T00:16:39;18.17;;;7.17;;
17714;SDS011;8977;50.902;4.314;2024-02-21T00:19:06;14.43;;;6.50;;
17714;SDS011;8977;50.902;4.314;2024-02-21T00:21:33;13.77;;;7.17;;
17714;SDS011;8977;50.902;4.314;2024-02-21T00:24:00;16.60;;;6.87;;
17714;SDS011;8977;50.902;4.314;2024-02-21T00:26:27;17.20;;;7.17;;
17714;SDS011;8977;50.902;4.314;2024-02-21T00:28:55;16.57;;;7.47;;
17714;SDS011;8977;50.902;4.314;2024-02-21T00:31:22;14.43;;;6.87;;
17714;SDS011;8977;50.902;4.314;2024-02-21T00:33:49;15.53;;;7.30;;
17714;SDS011;8977;50.902;4.314;2024-02-21T00:36:16;14.00;;;7.30;;
17714;SDS011;8977;50.902;4.314;2024-02-21T00:38:43;18.87;;;7.30;;
17714;SDS011;8977;50.902;4.314;2024-02-21T00:41:10;14.33;;;7.00;;
17714;SDS011;8977;50.902;4.314;2024-02-21T00:43:37;11.77;;;6.90;;
17714;SDS011;8977;50.902;4.314;2024-02-21T00:46:06;17.77;;;7.30;;
17714;SDS011;8977;50.902;4.314;2024-02-21T00:48:33;12.30;;;6.10;;
17714;SDS011;8977;50.902;4.314;2024-02-21T00:51:00;14.00;;;7.80;;
17714;SDS011;8977;50.902;4.314;2024-02-21T00:53:27;14.97;;;7.40;;
17714;SDS011;8977;50.902;4.314;2024-02-21T00:55:54;16.07;;;6.97;;
17714;SDS011;8977;50.902;4.314;2024-02-21T00:58:22;14.17;;;6.33;;
17714;SDS011;8977;50.902;4.314;2024-02-21T01:00:49;13.43;;;6.90;;
17714;SDS011;8977;50.902;4.314;2024-02-21T01:03:17;13.73;;;6.80;;
17714;SDS011;8977;50.902;4.314;2024-02-21T01:05:44;18.40;;;6.67;;
17714;SDS011;8977;50.902;4.314;2024-02-21T01:08:11;13.27;;;7.03;;
17714;SDS011;8977;50.902;4.314;2024-02-21T01:10:38;13.60;;;7.03;;
17714;SDS011;8977;50.902;4.314;2024-02-21T01:13:05;18.23;;;8.30;;
17714;SDS011;8977;50.902;4.314;2024-02-21T01:15:32;16.30;;;7.73;;
17714;SDS011;8977;50.902;4.314;2024-02-21T01:17:59;15.63;;;8.13;;
17714;SDS011;8977;50.902;4.314;2024-02-21T01:20:27;13.70;;;6.93;;
17714;SDS011;8977;50.902;4.314;2024-02-21T01:22:54;13.30;;;7.80;;
17714;SDS011;8977;50.902;4.314;2024-02-21T01:25:21;16.03;;;7.40;;
17714;SDS011;8977;50.902;4.314;2024-02-21T01:27:49;18.87;;;7.33;;
17714;SDS011;8977;50.902;4.314;2024-02-21T01:30:17;15.60;;;7.13;;
17714;SDS011;8977;50.902;4.314;2024-02-21T01:32:44;13.00;;;6.80;;
17714;SDS011;8977;50.902;4.314;2024-02-21T01:35:11;15.57;;;7.40;;
17714;SDS011;8977;50.902;4.314;2024-02-21T01:37:39;11.37;;;7.17;;
17714;SDS011;8977;50.902;4.314;2024-02-21T01:40:06;13.37;;;7.23;;
17714;SDS011;8977;50.902;4.314;2024-02-21T01:42:37;16.00;;;6.93;;
17714;SDS011;8977;50.902;4.314;2024-02-21T01:45:05;13.37;;;7.17;;
17714;SDS011;8977;50.902;4.314;2024-02-21T01:47:32;13.20;;;6.73;;
17714;SDS011;8977;50.902;4.314;2024-02-21T01:49:59;15.63;;;6.77;;
17714;SDS011;8977;50.902;4.314;2024-02-21T01:52:27;13.80;;;6.93;;
17714;SDS011;8977;50.902;4.314;2024-02-21T01:54:56;14.07;;;7.07;;
17714;SDS011;8977;50.902;4.314;2024-02-21T01:57:24;13.30;;;7.00;;
17714;SDS011;8977;50.902;4.314;2024-02-21T01:59:51;11.57;;;6.67;;
17714;SDS011;8977;50.902;4.314;2024-02-21T02:02:18;16.83;;;7.20;;
17714;SDS011;8977;50.902;4.314;2024-02-21T02:04:45;14.63;;;6.93;;
17714;SDS011;8977;50.902;4.314;2024-02-21T02:07:12;13.67;;;7.10;;
17714;SDS011;8977;50.902;4.314;2024-02-21T02:09:39;12.63;;;7.30;;
17714;SDS011;8977;50.902;4.314;2024-02-21T02:12:08;16.63;;;7.70;;
17714;SDS011;8977;50.902;4.314;2024-02-21T02:14:35;15.57;;;7.20;;
17714;SDS011;8977;50.902;4.314;2024-02-21T02:17:02;14.43;;;7.47;;
17714;SDS011;8977;50.902;4.314;2024-02-21T02:19:28;16.93;;;7.87;;
17714;SDS011;8977;50.902;4.314;2024-02-21T02:21:56;14.90;;;7.53;;
17714;SDS011;8977;50.902;4.314;2024-02-21T02:24:33;17.37;;;8.13;;
17714;SDS011;8977;50.902;4.314;2024-02-21T02:27:00;14.37;;;7.43;;
17714;SDS011;8977;50.902;4.314;2024-02-21T02:29:27;19.00;;;9.27;;
17714;SDS011;8977;50.902;4.314;2024-02-21T02:31:53;15.87;;;7.90;;
17714;SDS011;8977;50.902;4.314;2024-02-21T02:34:20;20.93;;;8.23;;
17714;SDS011;8977;50.902;4.314;2024-02-21T02:36:47;16.77;;;8.80;;
17714;SDS011;8977;50.902;4.314;2024-02-21T02:39:14;13.90;;;8.27;;
17714;SDS011;8977;50.902;4.314;2024-02-21T02:41:42;16.97;;;8.73;;
17714;SDS011;8977;50.902;4.314;2024-02-21T02:44:09;14.17;;;8.37;;
17714;SDS011;8977;50.902;4.314;2024-02-21T02:46:36;15.30;;;7.93;;
17714;SDS011;8977;50.902;4.314;2024-02-21T02:49:06;14.70;;;8.33;;
17714;SDS011;8977;50.902;4.314;2024-02-21T02:51:33;15.83;;;8.77;;
17714;SDS011;8977;50.902;4.314;2024-02-21T02:54:00;12.47;;;7.67;;
17714;SDS011;8977;50.902;4.314;2024-02-21T02:56:28;14.83;;;8.00;;
17714;SDS011;8977;50.902;4.314;2024-02-21T02:58:56;14.67;;;8.07;;
17714;SDS011;8977;50.902;4.314;2024-02-21T03:01:23;17.47;;;8.43;;
17714;SDS011;8977;50.902;4.314;2024-02-21T03:03:50;15.13;;;8.13;;
17714;SDS011;8977;50.902;4.314;2024-02-21T03:06:17;18.47;;;8.70;;
17714;SDS011;8977;50.902;4.314;2024-02-21T03:08:43;13.97;;;8.87;;
17714;SDS011;8977;50.902;4.314;2024-02-21T03:11:11;14.03;;;8.80;;
17714;SDS011;8977;50.902;4.314;2024-02-21T03:13:37;17.87;;;8.50;;
17714;SDS011;8977;50.902;4.314;2024-02-21T03:16:06;21.63;;;9.47;;
17714;SDS011;8977;50.902;4.314;2024-02-21T03:18:33;14.30;;;8.70;;
17714;SDS011;8977;50.902;4.314;2024-02-21T03:21:00;20.10;;;8.97;;
17714;SDS011;8977;50.902;4.314;2024-02-21T03:23:27;20.10;;;8.10;;
17714;SDS011;8977;50.902;4.314;2024-02-21T03:25:54;17.00;;;8.47;;
17714;SDS011;8977;50.902;4.314;2024-02-21T03:28:21;21.30;;;9.07;;
17714;SDS011;8977;50.902;4.314;2024-02-21T03:30:48;17.73;;;9.00;;
17714;SDS011;8977;50.902;4.314;2024-02-21T03:33:16;17.53;;;9.47;;
17714;SDS011;8977;50.902;4.314;2024-02-21T03:35:45;20.80;;;9.50;;
17714;SDS011;8977;50.902;4.314;2024-02-21T03:38:12;16.57;;;8.97;;
17714;SDS011;8977;50.902;4.314;2024-02-21T03:40:39;18.43;;;9.63;;
17714;SDS011;8977;50.902;4.314;2024-02-21T03:43:05;19.70;;;9.87;;
17714;SDS011;8977;50.902;4.314;2024-02-21T03:45:32;19.23;;;9.07;;
17714;SDS011;8977;50.902;4.314;2024-02-21T03:47:59;17.37;;;9.70;;
17714;SDS011;8977;50.902;4.314;2024-02-21T03:50:27;16.20;;;9.23;;
17714;SDS011;8977;50.902;4.314;2024-02-21T03:52:54;15.60;;;8.87;;
17714;SDS011;8977;50.902;4.314;2024-02-21T03:55:21;16.10;;;9.50;;
17714;SDS011;8977;50.902;4.314;2024-02-21T03:57:48;17.17;;;8.73;;
17714;SDS011;8977;50.902;4.314;2024-02-21T04:00:15;16.73;;;9.23;;
17714;SDS011;8977;50.902;4.314;2024-02-21T04:02:42;20.30;;;9.23;;
17714;SDS011;8977;50.902;4.314;2024-02-21T04:05:09;16.50;;;9.10;;
17714;SDS011;8977;50.902;4.314;2024-02-21T04:07:38;16.73;;;8.83;;
17714;SDS011;8977;50.902;4.314;2024-02-21T04:10:06;18.27;;;9.30;;
17714;SDS011;8977;50.902;4.314;2024-02-21T04:12:33;15.50;;;9.30;;
17714;SDS011;8977;50.902;4.314;2024-02-21T04:15:00;17.70;;;9.50;;
17714;SDS011;8977;50.902;4.314;2024-02-21T04:17:27;14.40;;;8.87;;
17714;SDS011;8977;50.902;4.314;2024-02-21T04:19:56;21.70;;;8.97;;
17714;SDS011;8977;50.902;4.314;2024-02-21T04:22:31;17.87;;;9.20;;
17714;SDS011;8977;50.902;4.314;2024-02-21T04:25:00;15.83;;;9.43;;
17714;SDS011;8977;50.902;4.314;2024-02-21T04:27:27;14.83;;;8.37;;
17714;SDS011;8977;50.902;4.314;2024-02-21T04:29:54;13.67;;;8.60;;
17714;SDS011;8977;50.902;4.314;2024-02-21T04:32:21;14.60;;;8.60;;
17714;SDS011;8977;50.902;4.314;2024-02-21T04:34:48;15.17;;;8.87;;
17714;SDS011;8977;50.902;4.314;2024-02-21T04:37:15;14.70;;;8.77;;
17714;SDS011;8977;50.902;4.314;2024-02-21T04:39:42;18.03;;;9.40;;
17714;SDS011;8977;50.902;4.314;2024-02-21T04:42:10;18.03;;;8.87;;
17714;SDS011;8977;50.902;4.314;2024-02-21T04:44:37;18.30;;;9.20;;
17714;SDS011;8977;50.902;4.314;2024-02-21T04:47:04;15.10;;;8.33;;
17714;SDS011;8977;50.902;4.314;2024-02-21T04:49:31;14.63;;;8.17;;
17714;SDS011;8977;50.902;4.314;2024-02-21T04:51:58;15.80;;;8.30;;
17714;SDS011;8977;50.902;4.314;2024-02-21T04:54:25;13.10;;;8.53;;
17714;SDS011;8977;50.902;4.314;2024-02-21T04:56:52;15.17;;;8.47;;
17714;SDS011;8977;50.902;4.314;2024-02-21T04:59:20;16.17;;;7.87;;
17714;SDS011;8977;50.902;4.314;2024-02-21T05:01:47;15.00;;;8.47;;
17714;SDS011;8977;50.902;4.314;2024-02-21T05:04:14;12.77;;;7.83;;
17714;SDS011;8977;50.902;4.314;2024-02-21T05:06:41;14.03;;;7.83;;
17714;SDS011;8977;50.902;4.314;2024-02-21T05:09:09;15.73;;;7.67;;
17714;SDS011;8977;50.902;4.314;2024-02-21T05:11:36;14.50;;;8.00;;
17714;SDS011;8977;50.902;4.314;2024-02-21T05:14:03;11.17;;;7.93;;
17714;SDS011;8977;50.902;4.314;2024-02-21T05:16:32;13.60;;;7.77;;
17714;SDS011;8977;50.902;4.314;2024-02-21T05:18:59;12.83;;;7.83;;
17714;SDS011;8977;50.902;4.314;2024-02-21T05:21:26;12.27;;;7.50;;
17714;SDS011;8977;50.902;4.314;2024-02-21T05:23:53;11.87;;;7.57;;
17714;SDS011;8977;50.902;4.314;2024-02-21T05:26:20;12.20;;;7.13;;
17714;SDS011;8977;50.902;4.314;2024-02-21T05:28:48;14.97;;;7.90;;
17714;SDS011;8977;50.902;4.314;2024-02-21T05:31:15;10.27;;;7.20;;
17714;SDS011;8977;50.902;4.314;2024-02-21T05:33:43;13.07;;;7.07;;
17714;SDS011;8977;50.902;4.314;2024-02-21T05:36:10;11.33;;;6.57;;
17714;SDS011;8977;50.902;4.314;2024-02-21T05:38:37;9.83;;;6.83;;
17714;SDS011;8977;50.902;4.314;2024-02-21T05:41:05;11.97;;;7.13;;
17714;SDS011;8977;50.902;4.314;2024-02-21T05:43:32;12.37;;;7.40;;
17714;SDS011;8977;50.902;4.314;2024-02-21T05:45:58;12.30;;;7.23;;
17714;SDS011;8977;50.902;4.314;2024-02-21T05:48:25;13.20;;;7.17;;
17714;SDS011;8977;50.902;4.314;2024-02-21T05:50:54;9.47;;;7.33;;
17714;SDS011;8977;50.902;4.314;2024-02-21T05:53:21;11.10;;;6.63;;
17714;SDS011;8977;50.902;4.314;2024-02-21T05:55:48;11.03;;;7.10;;
17714;SDS011;8977;50.902;4.314;2024-02-21T05:58:14;11.70;;;7.10;;
17714;SDS011;8977;50.902;4.314;2024-02-21T06:00:41;10.23;;;6.50;;
17714;SDS011;8977;50.902;4.314;2024-02-21T06:03:08;12.20;;;6.90;;
17714;SDS011;8977;50.902;4.314;2024-02-21T06:05:36;10.53;;;7.17;;
17714;SDS011;8977;50.902;4.314;2024-02-21T06:08:06;10.50;;;6.77;;
17714;SDS011;8977;50.902;4.314;2024-02-21T06:10:34;10.80;;;6.57;;
17714;SDS011;8977;50.902;4.314;2024-02-21T06:13:01;9.87;;;6.37;;
17714;SDS011;8977;50.902;4.314;2024-02-21T06:15:28;10.97;;;6.37;;
17714;SDS011;8977;50.902;4.314;2024-02-21T06:17:54;10.83;;;6.63;;
17714;SDS011;8977;50.902;4.314;2024-02-21T06:20:21;11.73;;;6.80;;
17714;SDS011;8977;50.902;4.314;2024-02-21T06:22:48;9.60;;;6.00;;
17714;SDS011;8977;50.902;4.314;2024-02-21T06:25:16;10.57;;;5.50;;
17714;SDS011;8977;50.902;4.314;2024-02-21T06:27:43;8.73;;;5.17;;
17714;SDS011;8977;50.902;4.314;2024-02-21T06:30:10;10.07;;;5.43;;
17714;SDS011;8977;50.902;4.314;2024-02-21T06:32:38;7.80;;;5.50;;
17714;SDS011;8977;50.902;4.314;2024-02-21T06:35:05;8.20;;;5.73;;
17714;SDS011;8977;50.902;4.314;2024-02-21T06:37:32;8.67;;;5.60;;
17714;SDS011;8977;50.902;4.314;2024-02-21T06:39:59;9.60;;;5.87;;
17714;SDS011;8977;50.902;4.314;2024-02-21T06:42:27;9.50;;;6.00;;
17714;SDS011;8977;50.902;4.314;2024-02-21T06:44:54;7.93;;;6.07;;
17714;SDS011;8977;50.902;4.314;2024-02-21T06:47:22;9.07;;;6.30;;
17714;SDS011;8977;50.902;4.314;2024-02-21T06:49:49;10.07;;;7.43;;
17714;SDS011;8977;50.902;4.314;2024-02-21T06:52:17;9.47;;;7.70;;
17714;SDS011;8977;50.902;4.314;2024-02-21T06:54:45;14.13;;;8.30;;
17714;SDS011;8977;50.902;4.314;2024-02-21T06:57:13;10.47;;;7.97;;
17714;SDS011;8977;50.902;4.314;2024-02-21T06:59:42;10.37;;;8.07;;
17714;SDS011;8977;50.902;4.314;2024-02-21T07:02:09;15.90;;;8.87;;
17714;SDS011;8977;50.902;4.314;2024-02-21T07:04:35;14.37;;;9.80;;
17714;SDS011;8977;50.902;4.314;2024-02-21T07:07:02;12.90;;;8.50;;
17714;SDS011;8977;50.902;4.314;2024-02-21T07:09:29;13.33;;;8.77;;
17714;SDS011;8977;50.902;4.314;2024-02-21T07:11:57;13.47;;;9.50;;
17714;SDS011;8977;50.902;4.314;2024-02-21T07:14:24;13.03;;;9.57;;
17714;SDS011;8977;50.902;4.314;2024-02-21T07:16:52;11.60;;;10.00;;
17714;SDS011;8977;50.902;4.314;2024-02-21T07:19:19;14.13;;;9.50;;
17714;SDS011;8977;50.902;4.314;2024-02-21T07:21:46;12.63;;;9.80;;
17714;SDS011;8977;50.902;4.314;2024-02-21T07:24:13;12.77;;;10.10;;
17714;SDS011;8977;50.902;4.314;2024-02-21T07:26:41;16.00;;;11.37;;
17714;SDS011;8977;50.902;4.314;2024-02-21T07:29:09;19.43;;;14.27;;
17714;SDS011;8977;50.902;4.314;2024-02-21T07:31:40;19.60;;;14.40;;
17714;SDS011;8977;50.902;4.314;2024-02-21T07:34:08;19.67;;;15.03;;
17714;SDS011;8977;50.902;4.314;2024-02-21T07:36:35;18.60;;;14.00;;
17714;SDS011;8977;50.902;4.314;2024-02-21T07:39:04;17.93;;;13.30;;
17714;SDS011;8977;50.902;4.314;2024-02-21T07:41:30;17.00;;;12.70;;
17714;SDS011;8977;50.902;4.314;2024-02-21T07:43:59;14.73;;;11.90;;
17714;SDS011;8977;50.902;4.314;2024-02-21T07:46:26;15.00;;;11.20;;
17714;SDS011;8977;50.902;4.314;2024-02-21T07:48:53;15.30;;;10.80;;
17714;SDS011;8977;50.902;4.314;2024-02-21T07:51:21;15.70;;;10.87;;
17714;SDS011;8977;50.902;4.314;2024-02-21T07:53:48;15.00;;;9.70;;
17714;SDS011;8977;50.902;4.314;2024-02-21T07:56:15;13.53;;;9.57;;
17714;SDS011;8977;50.902;4.314;2024-02-21T07:58:42;11.63;;;9.13;;
17714;SDS011;8977;50.902;4.314;2024-02-21T08:01:09;11.33;;;7.83;;
17714;SDS011;8977;50.902;4.314;2024-02-21T08:03:36;13.87;;;8.83;;
17714;SDS011;8977;50.902;4.314;2024-02-21T08:06:03;10.63;;;7.97;;
17714;SDS011;8977;50.902;4.314;2024-02-21T08:08:32;10.90;;;7.27;;
17714;SDS011;8977;50.902;4.314;2024-02-21T08:10:59;10.93;;;6.77;;
17714;SDS011;8977;50.902;4.314;2024-02-21T08:13:25;10.07;;;6.87;;
17714;SDS011;8977;50.902;4.314;2024-02-21T08:15:53;13.20;;;7.37;;
17714;SDS011;8977;50.902;4.314;2024-02-21T08:18:20;11.47;;;6.50;;
17714;SDS011;8977;50.902;4.314;2024-02-21T08:20:47;12.87;;;6.37;;
17714;SDS011;8977;50.902;4.314;2024-02-21T08:23:15;9.30;;;5.90;;
17714;SDS011;8977;50.902;4.314;2024-02-21T08:25:44;13.43;;;6.67;;
17714;SDS011;8977;50.902;4.314;2024-02-21T08:28:10;11.03;;;6.13;;
17714;SDS011;8977;50.902;4.314;2024-02-21T08:30:38;7.03;;;5.60;;
17714;SDS011;8977;50.902;4.314;2024-02-21T08:33:05;8.43;;;5.63;;
17714;SDS011;8977;50.902;4.314;2024-02-21T08:35:32;9.90;;;5.47;;
17714;SDS011;8977;50.902;4.314;2024-02-21T08:37:59;9.57;;;5.80;;
17714;SDS011;8977;50.902;4.314;2024-02-21T08:40:25;5.90;;;5.30;;
17714;SDS011;8977;50.902;4.314;2024-02-21T08:42:54;8.53;;;5.03;;
17714;SDS011;8977;50.902;4.314;2024-02-21T08:45:20;6.47;;;5.03;;
17714;SDS011;8977;50.902;4.314;2024-02-21T08:47:47;9.60;;;5.13;;
17714;SDS011;8977;50.902;4.314;2024-02-21T08:50:14;7.70;;;4.80;;
17714;SDS011;8977;50.902;4.314;2024-02-21T08:52:41;8.83;;;4.60;;
17714;SDS011;8977;50.902;4.314;2024-02-21T08:55:08;8.20;;;4.50;;
17714;SDS011;8977;50.902;4.314;2024-02-21T08:57:35;9.17;;;4.53;;
17714;SDS011;8977;50.902;4.314;2024-02-21T09:00:05;6.40;;;4.57;;
17714;SDS011;8977;50.902;4.314;2024-02-21T09:02:35;7.70;;;4.53;;
17714;SDS011;8977;50.902;4.314;2024-02-21T09:05:03;8.23;;;4.00;;
17714;SDS011;8977;50.902;4.314;2024-02-21T09:07:31;8.03;;;4.23;;
17714;SDS011;8977;50.902;4.314;2024-02-21T09:09:58;9.17;;;4.10;;
17714;SDS011;8977;50.902;4.314;2024-02-21T09:12:24;6.90;;;4.30;;
17714;SDS011;8977;50.902;4.314;2024-02-21T09:14:51;6.67;;;4.53;;
17714;SDS011;8977;50.902;4.314;2024-02-21T09:17:20;9.07;;;4.73;;
17714;SDS011;8977;50.902;4.314;2024-02-21T09:19:47;8.93;;;3.80;;
17714;SDS011;8977;50.902;4.314;2024-02-21T09:22:14;8.80;;;4.03;;
17714;SDS011;8977;50.902;4.314;2024-02-21T09:24:41;9.67;;;3.73;;
17714;SDS011;8977;50.902;4.314;2024-02-21T09:27:07;4.93;;;3.50;;
17714;SDS011;8977;50.902;4.314;2024-02-21T09:29:34;7.93;;;3.80;;
17714;SDS011;8977;50.902;4.314;2024-02-21T09:32:01;11.63;;;4.33;;
17714;SDS011;8977;50.902;4.314;2024-02-21T09:34:30;7.93;;;4.40;;
17714;SDS011;8977;50.902;4.314;2024-02-21T09:36:57;7.73;;;4.17;;
17714;SDS011;8977;50.902;4.314;2024-02-21T09:39:24;5.70;;;3.80;;
17714;SDS011;8977;50.902;4.314;2024-02-21T09:41:53;7.67;;;4.83;;
17714;SDS011;8977;50.902;4.314;2024-02-21T09:44:25;7.70;;;4.27;;
17714;SDS011;8977;50.902;4.314;2024-02-21T09:47:02;6.93;;;4.30;;
17714;SDS011;8977;50.902;4.314;2024-02-21T09:49:31;6.30;;;4.03;;
17714;SDS011;8977;50.902;4.314;2024-02-21T09:52:00;6.80;;;4.40;;
17714;SDS011;8977;50.902;4.314;2024-02-21T09:54:29;13.33;;;4.37;;
17714;SDS011;8977;50.902;4.314;2024-02-21T09:56:56;6.73;;;4.03;;
17714;SDS011;8977;50.902;4.314;2024-02-21T09:59:23;8.40;;;4.10;;
17714;SDS011;8977;50.902;4.314;2024-02-21T10:01:51;7.03;;;4.23;;
17714;SDS011;8977;50.902;4.314;2024-02-21T10:04:18;5.90;;;4.07;;
17714;SDS011;8977;50.902;4.314;2024-02-21T10:06:47;8.37;;;4.20;;
17714;SDS011;8977;50.902;4.314;2024-02-21T10:09:20;7.80;;;4.23;;
17714;SDS011;8977;50.902;4.314;2024-02-21T10:11:48;7.20;;;4.20;;
17714;SDS011;8977;50.902;4.314;2024-02-21T10:14:15;6.63;;;3.70;;
17714;SDS011;8977;50.902;4.314;2024-02-21T10:16:43;9.87;;;4.03;;
17714;SDS011;8977;50.902;4.314;2024-02-21T10:19:17;8.90;;;5.03;;
17714;SDS011;8977;50.902;4.314;2024-02-21T10:21:58;8.23;;;4.40;;
17714;SDS011;8977;50.902;4.314;2024-02-21T10:24:26;5.67;;;3.70;;
17714;SDS011;8977;50.902;4.314;2024-02-21T10:26:58;6.73;;;3.90;;
17714;SDS011;8977;50.902;4.314;2024-02-21T10:29:26;6.00;;;3.67;;
17714;SDS011;8977;50.902;4.314;2024-02-21T10:32:02;6.63;;;3.63;;
17714;SDS011;8977;50.902;4.314;2024-02-21T10:34:33;11.47;;;4.40;;
17714;SDS011;8977;50.902;4.314;2024-02-21T10:37:02;7.60;;;4.20;;
17714;SDS011;8977;50.902;4.314;2024-02-21T10:39:29;7.83;;;4.33;;
17714;SDS011;8977;50.902;4.314;2024-02-21T10:41:59;8.10;;;3.63;;
17714;SDS011;8977;50.902;4.314;2024-02-21T10:44:29;7.70;;;4.50;;
17714;SDS011;8977;50.902;4.314;2024-02-21T10:46:58;8.70;;;4.53;;
17714;SDS011;8977;50.902;4.314;2024-02-21T10:49:25;8.33;;;4.67;;
17714;SDS011;8977;50.902;4.314;2024-02-21T10:51:54;8.67;;;4.70;;
17714;SDS011;8977;50.902;4.314;2024-02-21T10:54:42;9.57;;;4.20;;
17714;SDS011;8977;50.902;4.314;2024-02-21T10:57:12;8.17;;;4.40;;
17714;SDS011;8977;50.902;4.314;2024-02-21T10:59:39;8.73;;;4.47;;
17714;SDS011;8977;50.902;4.314;2024-02-21T11:02:06;6.00;;;3.77;;
17714;SDS011;8977;50.902;4.314;2024-02-21T11:04:34;7.27;;;4.33;;
17714;SDS011;8977;50.902;4.314;2024-02-21T11:07:02;6.77;;;3.73;;
17714;SDS011;8977;50.902;4.314;2024-02-21T11:09:31;7.20;;;4.30;;
17714;SDS011;8977;50.902;4.314;2024-02-21T11:12:01;8.30;;;4.57;;
17714;SDS011;8977;50.902;4.314;2024-02-21T11:14:29;9.93;;;4.40;;
17714;SDS011;8977;50.902;4.314;2024-02-21T11:16:58;8.70;;;4.43;;
17714;SDS011;8977;50.902;4.314;2024-02-21T11:19:26;7.47;;;4.13;;
17714;SDS011;8977;50.902;4.314;2024-02-21T11:21:53;6.50;;;4.47;;
17714;SDS011;8977;50.902;4.314;2024-02-21T11:24:28;6.70;;;4.10;;
17714;SDS011;8977;50.902;4.314;2024-02-21T11:26:56;8.77;;;4.20;;
17714;SDS011;8977;50.902;4.314;2024-02-21T11:29:24;6.00;;;3.93;;
17714;SDS011;8977;50.902;4.314;2024-02-21T11:31:51;9.03;;;4.50;;
17714;SDS011;8977;50.902;4.314;2024-02-21T11:34:18;7.33;;;3.90;;
17714;SDS011;8977;50.902;4.314;2024-02-21T11:36:46;7.73;;;3.93;;
17714;SDS011;8977;50.902;4.314;2024-02-21T11:39:17;8.03;;;4.03;;
17714;SDS011;8977;50.902;4.314;2024-02-21T11:41:46;6.43;;;3.50;;
17714;SDS011;8977;50.902;4.314;2024-02-21T11:44:13;7.53;;;3.67;;
17714;SDS011;8977;50.902;4.314;2024-02-21T11:46:41;6.67;;;3.83;;
17714;SDS011;8977;50.902;4.314;2024-02-21T11:49:09;5.90;;;4.00;;
17714;SDS011;8977;50.902;4.314;2024-02-21T11:51:36;6.57;;;3.87;;
17714;SDS011;8977;50.902;4.314;2024-02-21T11:54:03;5.63;;;3.83;;
17714;SDS011;8977;50.902;4.314;2024-02-21T11:56:31;6.33;;;3.77;;
17714;SDS011;8977;50.902;4.314;2024-02-21T11:58:59;6.50;;;4.10;;
17714;SDS011;8977;50.902;4.314;2024-02-21T12:01:25;8.37;;;3.93;;
17714;SDS011;8977;50.902;4.314;2024-02-21T12:03:54;10.37;;;3.70;;
17714;SDS011;8977;50.902;4.314;2024-02-21T12:06:21;10.97;;;4.47;;
17714;SDS011;8977;50.902;4.314;2024-02-21T12:08:48;10.13;;;4.43;;
17714;SDS011;8977;50.902;4.314;2024-02-21T12:11:19;8.80;;;4.60;;
17714;SDS011;8977;50.902;4.314;2024-02-21T12:13:47;11.03;;;5.17;;
17714;SDS011;8977;50.902;4.314;2024-02-21T12:16:16;8.07;;;4.73;;
17714;SDS011;8977;50.902;4.314;2024-02-21T12:18:44;7.07;;;4.73;;
17714;SDS011;8977;50.902;4.314;2024-02-21T12:21:12;8.53;;;4.83;;
17714;SDS011;8977;50.902;4.314;2024-02-21T12:23:39;8.43;;;4.43;;
17714;SDS011;8977;50.902;4.314;2024-02-21T12:26:06;9.03;;;4.97;;
17714;SDS011;8977;50.902;4.314;2024-02-21T12:28:33;7.87;;;4.60;;
17714;SDS011;8977;50.902;4.314;2024-02-21T12:31:00;9.50;;;5.03;;
17714;SDS011;8977;50.902;4.314;2024-02-21T12:33:29;6.87;;;5.07;;
17714;SDS011;8977;50.902;4.314;2024-02-21T12:35:56;7.00;;;5.40;;
17714;SDS011;8977;50.902;4.314;2024-02-21T12:38:24;9.53;;;5.53;;
17714;SDS011;8977;50.902;4.314;2024-02-21T12:40:51;9.03;;;5.47;;
17714;SDS011;8977;50.902;4.314;2024-02-21T12:43:18;9.03;;;5.30;;
17714;SDS011;8977;50.902;4.314;2024-02-21T12:45:47;10.67;;;5.60;;
17714;SDS011;8977;50.902;4.314;2024-02-21T12:48:14;8.83;;;5.30;;
17714;SDS011;8977;50.902;4.314;2024-02-21T12:50:41;9.70;;;5.83;;
17714;SDS011;8977;50.902;4.314;2024-02-21T12:53:16;11.50;;;5.67;;
17714;SDS011;8977;50.902;4.314;2024-02-21T12:55:45;7.53;;;5.13;;
17714;SDS011;8977;50.902;4.314;2024-02-21T12:58:12;7.50;;;4.70;;
17714;SDS011;8977;50.902;4.314;2024-02-21T13:00:40;6.93;;;5.47;;
17714;SDS011;8977;50.902;4.314;2024-02-21T13:03:06;8.90;;;5.10;;
17714;SDS011;8977;50.902;4.314;2024-02-21T13:05:34;7.27;;;5.00;;
17714;SDS011;8977;50.902;4.314;2024-02-21T13:08:01;6.67;;;4.67;;
17714;SDS011;8977;50.902;4.314;2024-02-21T13:10:29;7.77;;;5.00;;
17714;SDS011;8977;50.902;4.314;2024-02-21T13:12:57;5.03;;;4.43;;
17714;SDS011;8977;50.902;4.314;2024-02-21T13:15:24;9.07;;;4.60;;
17714;SDS011;8977;50.902;4.314;2024-02-21T13:17:51;6.03;;;4.77;;
17714;SDS011;8977;50.902;4.314;2024-02-21T13:20:17;8.70;;;4.93;;
17714;SDS011;8977;50.902;4.314;2024-02-21T13:22:44;9.83;;;5.03;;
17714;SDS011;8977;50.902;4.314;2024-02-21T13:25:11;8.10;;;4.73;;
17714;SDS011;8977;50.902;4.314;2024-02-21T13:27:40;7.43;;;4.70;;
17714;SDS011;8977;50.902;4.314;2024-02-21T13:30:09;8.33;;;4.30;;
17714;SDS011;8977;50.902;4.314;2024-02-21T13:32:36;9.63;;;4.80;;
17714;SDS011;8977;50.902;4.314;2024-02-21T13:35:03;8.33;;;4.70;;
17714;SDS011;8977;50.902;4.314;2024-02-21T13:37:31;8.30;;;4.60;;
17714;SDS011;8977;50.902;4.314;2024-02-21T13:39:58;8.07;;;4.83;;
17714;SDS011;8977;50.902;4.314;2024-02-21T13:42:25;7.27;;;4.60;;
17714;SDS011;8977;50.902;4.314;2024-02-21T13:44:53;6.70;;;4.43;;
17714;SDS011;8977;50.902;4.314;2024-02-21T13:47:21;10.40;;;5.00;;
17714;SDS011;8977;50.902;4.314;2024-02-21T13:49:48;7.77;;;4.33;;
17714;SDS011;8977;50.902;4.314;2024-02-21T13:52:14;5.77;;;4.20;;
17714;SDS011;8977;50.902;4.314;2024-02-21T13:54:42;6.30;;;4.50;;
17714;SDS011;8977;50.902;4.314;2024-02-21T13:57:09;10.77;;;4.90;;
17714;SDS011;8977;50.902;4.314;2024-02-21T13:59:35;6.90;;;4.60;;
17714;SDS011;8977;50.902;4.314;2024-02-21T14:02:02;6.60;;;4.57;;
17714;SDS011;8977;50.902;4.314;2024-02-21T14:04:31;7.77;;;4.70;;
17714;SDS011;8977;50.902;4.314;2024-02-21T14:06:57;6.17;;;4.73;;
17714;SDS011;8977;50.902;4.314;2024-02-21T14:09:24;8.93;;;4.57;;
17714;SDS011;8977;50.902;4.314;2024-02-21T14:11:51;6.93;;;4.57;;
17714;SDS011;8977;50.902;4.314;2024-02-21T14:14:18;5.73;;;4.50;;
17714;SDS011;8977;50.902;4.314;2024-02-21T14:16:45;6.60;;;4.50;;
17714;SDS011;8977;50.902;4.314;2024-02-21T14:19:13;10.53;;;4.50;;
17714;SDS011;8977;50.902;4.314;2024-02-21T14:21:41;8.80;;;4.93;;
17714;SDS011;8977;50.902;4.314;2024-02-21T14:24:09;8.20;;;4.40;;
17714;SDS011;8977;50.902;4.314;2024-02-21T14:26:36;7.73;;;4.50;;
17714;SDS011;8977;50.902;4.314;2024-02-21T14:29:06;7.23;;;4.70;;
17714;SDS011;8977;50.902;4.314;2024-02-21T14:31:33;7.23;;;4.20;;
17714;SDS011;8977;50.902;4.314;2024-02-21T14:33:59;9.40;;;4.67;;
17714;SDS011;8977;50.902;4.314;2024-02-21T14:36:27;5.77;;;4.47;;
17714;SDS011;8977;50.902;4.314;2024-02-21T14:38:55;8.20;;;4.63;;
17714;SDS011;8977;50.902;4.314;2024-02-21T14:41:24;10.40;;;4.80;;
17714;SDS011;8977;50.902;4.314;2024-02-21T14:43:52;8.60;;;4.33;;
17714;SDS011;8977;50.902;4.314;2024-02-21T14:46:21;7.77;;;4.27;;
17714;SDS011;8977;50.902;4.314;2024-02-21T14:48:47;8.13;;;4.50;;
17714;SDS011;8977;50.902;4.314;2024-02-21T14:51:14;6.77;;;4.30;;
17714;SDS011;8977;50.902;4.314;2024-02-21T14:53:41;9.60;;;4.50;;
17714;SDS011;8977;50.902;4.314;2024-02-21T14:56:13;6.60;;;4.40;;